sensor_id;sensor_type;location;lat;lon;timestamp;temperature;humidity
62573;DHT22;48626;51.678;5.806;2023-05-31T00:00:21;14.90;99.90
62573;DHT22;48626;51.678;5.806;2023-05-31T00:02:46;14.90;99.90
62573;DHT22;48626;51.678;5.806;2023-05-31T00:05:12;14.90;99.90
62573;DHT22;48626;51.678;5.806;2023-05-31T00:07:38;14.90;99.90
62573;DHT22;48626;51.678;5.806;2023-05-31T00:10:04;14.90;99.90
62573;DHT22;48626;51.678;5.806;2023-05-31T00:12:29;14.80;99.90
62573;DHT22;48626;51.678;5.806;2023-05-31T00:14:55;14.80;99.90
62573;DHT22;48626;51.678;5.806;2023-05-31T00:17:21;14.80;99.90
62573;DHT22;48626;51.678;5.806;2023-05-31T00:19:47;14.80;99.90
62573;DHT22;48626;51.678;5.806;2023-05-31T00:22:12;14.80;99.90
62573;DHT22;48626;51.678;5.806;2023-05-31T00:24:40;14.70;99.90
62573;DHT22;48626;51.678;5.806;2023-05-31T00:27:06;14.70;99.90
62573;DHT22;48626;51.678;5.806;2023-05-31T00:29:32;14.70;99.90
62573;DHT22;48626;51.678;5.806;2023-05-31T00:31:58;14.60;99.90
62573;DHT22;48626;51.678;5.806;2023-05-31T00:34:23;14.60;99.90
62573;DHT22;48626;51.678;5.806;2023-05-31T00:36:49;14.60;99.90
62573;DHT22;48626;51.678;5.806;2023-05-31T00:39:15;14.50;99.90
62573;DHT22;48626;51.678;5.806;2023-05-31T00:41:40;14.50;99.90
62573;DHT22;48626;51.678;5.806;2023-05-31T00:44:06;14.50;99.90
62573;DHT22;48626;51.678;5.806;2023-05-31T00:46:34;14.50;99.90
62573;DHT22;48626;51.678;5.806;2023-05-31T00:49:00;14.40;99.90
62573;DHT22;48626;51.678;5.806;2023-05-31T00:51:27;14.40;99.90
62573;DHT22;48626;51.678;5.806;2023-05-31T00:53:53;14.40;99.90
62573;DHT22;48626;51.678;5.806;2023-05-31T00:56:20;14.40;99.90
62573;DHT22;48626;51.678;5.806;2023-05-31T00:58:48;14.40;99.90
62573;DHT22;48626;51.678;5.806;2023-05-31T01:01:14;14.40;99.90
62573;DHT22;48626;51.678;5.806;2023-05-31T01:03:41;14.40;99.90
62573;DHT22;48626;51.678;5.806;2023-05-31T01:06:07;14.40;99.90
62573;DHT22;48626;51.678;5.806;2023-05-31T01:08:34;14.30;99.90
62573;DHT22;48626;51.678;5.806;2023-05-31T01:16:31;14.30;99.90
62573;DHT22;48626;51.678;5.806;2023-05-31T01:19:00;14.20;99.90
62573;DHT22;48626;51.678;5.806;2023-05-31T01:22:17;14.10;99.90
62573;DHT22;48626;51.678;5.806;2023-05-31T01:24:52;14.00;99.90
62573;DHT22;48626;51.678;5.806;2023-05-31T01:27:24;14.00;99.90
62573;DHT22;48626;51.678;5.806;2023-05-31T01:29:51;14.00;99.90
62573;DHT22;48626;51.678;5.806;2023-05-31T01:32:19;13.90;99.90
62573;DHT22;48626;51.678;5.806;2023-05-31T01:34:46;13.90;99.90
62573;DHT22;48626;51.678;5.806;2023-05-31T01:37:11;13.90;99.90
62573;DHT22;48626;51.678;5.806;2023-05-31T01:39:37;13.90;99.90
62573;DHT22;48626;51.678;5.806;2023-05-31T01:42:04;13.80;99.90
62573;DHT22;48626;51.678;5.806;2023-05-31T01:44:32;13.80;99.90
62573;DHT22;48626;51.678;5.806;2023-05-31T01:46:58;13.80;99.90
62573;DHT22;48626;51.678;5.806;2023-05-31T01:49:24;13.80;99.90
62573;DHT22;48626;51.678;5.806;2023-05-31T01:51:50;13.80;99.90
62573;DHT22;48626;51.678;5.806;2023-05-31T01:54:17;13.80;99.90
62573;DHT22;48626;51.678;5.806;2023-05-31T01:56:43;13.70;99.90
62573;DHT22;48626;51.678;5.806;2023-05-31T01:59:11;13.80;99.90
62573;DHT22;48626;51.678;5.806;2023-05-31T02:01:38;13.70;99.90
62573;DHT22;48626;51.678;5.806;2023-05-31T02:04:04;13.80;99.90
62573;DHT22;48626;51.678;5.806;2023-05-31T02:06:30;13.80;99.90
62573;DHT22;48626;51.678;5.806;2023-05-31T02:09:00;13.70;99.90
62573;DHT22;48626;51.678;5.806;2023-05-31T02:11:26;13.70;99.90
62573;DHT22;48626;51.678;5.806;2023-05-31T02:13:52;13.70;99.90
62573;DHT22;48626;51.678;5.806;2023-05-31T02:16:17;13.70;99.90
62573;DHT22;48626;51.678;5.806;2023-05-31T02:18:44;13.60;99.90
62573;DHT22;48626;51.678;5.806;2023-05-31T02:21:10;13.60;99.90
62573;DHT22;48626;51.678;5.806;2023-05-31T02:23:36;13.60;99.90
62573;DHT22;48626;51.678;5.806;2023-05-31T02:26:02;13.60;99.90
62573;DHT22;48626;51.678;5.806;2023-05-31T02:28:29;13.60;99.90
62573;DHT22;48626;51.678;5.806;2023-05-31T02:30:57;13.60;99.90
62573;DHT22;48626;51.678;5.806;2023-05-31T02:33:23;13.60;99.90
62573;DHT22;48626;51.678;5.806;2023-05-31T02:35:50;13.60;99.90
62573;DHT22;48626;51.678;5.806;2023-05-31T02:38:16;13.60;99.90
62573;DHT22;48626;51.678;5.806;2023-05-31T02:40:41;13.60;99.90
62573;DHT22;48626;51.678;5.806;2023-05-31T02:43:07;13.60;99.90
62573;DHT22;48626;51.678;5.806;2023-05-31T02:45:33;13.60;99.90
62573;DHT22;48626;51.678;5.806;2023-05-31T02:47:58;13.60;99.90
62573;DHT22;48626;51.678;5.806;2023-05-31T02:50:27;13.50;99.90
62573;DHT22;48626;51.678;5.806;2023-05-31T02:52:53;13.50;99.90
62573;DHT22;48626;51.678;5.806;2023-05-31T02:55:19;13.50;99.90
62573;DHT22;48626;51.678;5.806;2023-05-31T02:57:44;13.40;99.90
62573;DHT22;48626;51.678;5.806;2023-05-31T03:00:10;13.40;99.90
62573;DHT22;48626;51.678;5.806;2023-05-31T03:02:38;13.40;99.90
62573;DHT22;48626;51.678;5.806;2023-05-31T03:05:04;13.40;99.90
62573;DHT22;48626;51.678;5.806;2023-05-31T03:07:34;13.40;99.90
62573;DHT22;48626;51.678;5.806;2023-05-31T03:10:00;13.40;99.90
62573;DHT22;48626;51.678;5.806;2023-05-31T03:12:26;13.30;99.90
62573;DHT22;48626;51.678;5.806;2023-05-31T03:14:52;13.30;99.90
62573;DHT22;48626;51.678;5.806;2023-05-31T03:17:18;13.40;99.90
62573;DHT22;48626;51.678;5.806;2023-05-31T03:19:43;13.30;99.90
62573;DHT22;48626;51.678;5.806;2023-05-31T03:22:09;13.30;99.90
62573;DHT22;48626;51.678;5.806;2023-05-31T03:24:35;13.20;99.90
62573;DHT22;48626;51.678;5.806;2023-05-31T03:27:00;13.20;99.90
62573;DHT22;48626;51.678;5.806;2023-05-31T03:29:26;13.20;99.90
62573;DHT22;48626;51.678;5.806;2023-05-31T03:31:52;13.10;99.90
62573;DHT22;48626;51.678;5.806;2023-05-31T03:34:18;13.20;99.90
62573;DHT22;48626;51.678;5.806;2023-05-31T03:36:44;13.10;99.90
62573;DHT22;48626;51.678;5.806;2023-05-31T03:39:09;13.10;99.90
62573;DHT22;48626;51.678;5.806;2023-05-31T03:41:36;13.10;99.90
62573;DHT22;48626;51.678;5.806;2023-05-31T03:44:01;13.00;99.90
62573;DHT22;48626;51.678;5.806;2023-05-31T03:46:27;13.00;99.90
62573;DHT22;48626;51.678;5.806;2023-05-31T03:48:52;13.00;99.90
62573;DHT22;48626;51.678;5.806;2023-05-31T03:51:19;13.10;99.90
62573;DHT22;48626;51.678;5.806;2023-05-31T03:53:44;13.10;99.90
62573;DHT22;48626;51.678;5.806;2023-05-31T03:56:10;13.00;99.90
62573;DHT22;48626;51.678;5.806;2023-05-31T03:58:36;13.00;99.90
62573;DHT22;48626;51.678;5.806;2023-05-31T04:01:01;13.00;99.90
62573;DHT22;48626;51.678;5.806;2023-05-31T04:03:29;13.00;99.90
62573;DHT22;48626;51.678;5.806;2023-05-31T04:05:54;13.00;99.90
62573;DHT22;48626;51.678;5.806;2023-05-31T04:08:20;12.90;99.90
62573;DHT22;48626;51.678;5.806;2023-05-31T04:10:46;12.90;99.90
62573;DHT22;48626;51.678;5.806;2023-05-31T04:13:11;12.90;99.90
62573;DHT22;48626;51.678;5.806;2023-05-31T04:15:37;12.90;99.90
62573;DHT22;48626;51.678;5.806;2023-05-31T04:18:03;12.90;99.90
62573;DHT22;48626;51.678;5.806;2023-05-31T04:20:28;13.00;99.90
62573;DHT22;48626;51.678;5.806;2023-05-31T04:22:54;13.00;99.90
62573;DHT22;48626;51.678;5.806;2023-05-31T04:25:20;13.00;99.90
62573;DHT22;48626;51.678;5.806;2023-05-31T04:27:46;13.00;99.90
62573;DHT22;48626;51.678;5.806;2023-05-31T04:30:13;13.00;99.90
62573;DHT22;48626;51.678;5.806;2023-05-31T04:32:39;13.00;99.90
62573;DHT22;48626;51.678;5.806;2023-05-31T04:35:05;13.00;99.90
62573;DHT22;48626;51.678;5.806;2023-05-31T04:37:32;13.00;99.90
62573;DHT22;48626;51.678;5.806;2023-05-31T04:39:59;13.00;99.90
62573;DHT22;48626;51.678;5.806;2023-05-31T04:42:25;13.00;99.90
62573;DHT22;48626;51.678;5.806;2023-05-31T04:44:52;13.00;99.90
62573;DHT22;48626;51.678;5.806;2023-05-31T04:47:33;13.10;99.90
62573;DHT22;48626;51.678;5.806;2023-05-31T04:49:59;13.10;99.90
62573;DHT22;48626;51.678;5.806;2023-05-31T04:52:26;13.10;99.90
62573;DHT22;48626;51.678;5.806;2023-05-31T04:54:54;13.20;99.90
62573;DHT22;48626;51.678;5.806;2023-05-31T04:57:21;13.20;99.90
62573;DHT22;48626;51.678;5.806;2023-05-31T04:59:48;13.30;99.90
62573;DHT22;48626;51.678;5.806;2023-05-31T05:02:13;13.30;99.90
62573;DHT22;48626;51.678;5.806;2023-05-31T05:04:39;13.30;99.90
62573;DHT22;48626;51.678;5.806;2023-05-31T05:07:05;13.30;99.90
62573;DHT22;48626;51.678;5.806;2023-05-31T05:09:32;13.30;99.90
62573;DHT22;48626;51.678;5.806;2023-05-31T05:11:58;13.40;99.90
62573;DHT22;48626;51.678;5.806;2023-05-31T05:14:23;13.40;99.90
62573;DHT22;48626;51.678;5.806;2023-05-31T05:16:49;13.40;99.90
62573;DHT22;48626;51.678;5.806;2023-05-31T05:19:15;13.50;99.90
62573;DHT22;48626;51.678;5.806;2023-05-31T05:21:40;13.60;99.90
62573;DHT22;48626;51.678;5.806;2023-05-31T05:24:06;13.60;99.90
62573;DHT22;48626;51.678;5.806;2023-05-31T05:26:33;13.70;99.90
62573;DHT22;48626;51.678;5.806;2023-05-31T05:28:59;13.80;99.90
62573;DHT22;48626;51.678;5.806;2023-05-31T05:31:25;13.90;99.90
62573;DHT22;48626;51.678;5.806;2023-05-31T05:33:51;13.90;99.90
62573;DHT22;48626;51.678;5.806;2023-05-31T05:36:17;13.90;99.90
62573;DHT22;48626;51.678;5.806;2023-05-31T05:38:42;14.00;99.90
62573;DHT22;48626;51.678;5.806;2023-05-31T05:41:08;14.10;99.90
62573;DHT22;48626;51.678;5.806;2023-05-31T05:43:38;14.20;99.90
62573;DHT22;48626;51.678;5.806;2023-05-31T05:46:04;14.20;99.90
62573;DHT22;48626;51.678;5.806;2023-05-31T05:48:29;14.30;99.90
62573;DHT22;48626;51.678;5.806;2023-05-31T05:50:55;14.30;99.90
62573;DHT22;48626;51.678;5.806;2023-05-31T05:53:21;14.40;99.90
62573;DHT22;48626;51.678;5.806;2023-05-31T05:55:53;14.50;99.90
62573;DHT22;48626;51.678;5.806;2023-05-31T05:58:19;14.50;99.90
62573;DHT22;48626;51.678;5.806;2023-05-31T06:00:46;14.60;99.90
62573;DHT22;48626;51.678;5.806;2023-05-31T06:03:12;14.60;99.90
62573;DHT22;48626;51.678;5.806;2023-05-31T06:05:39;14.70;99.90
62573;DHT22;48626;51.678;5.806;2023-05-31T06:08:06;14.70;99.90
62573;DHT22;48626;51.678;5.806;2023-05-31T06:10:32;14.80;99.90
62573;DHT22;48626;51.678;5.806;2023-05-31T06:12:57;14.90;99.90
62573;DHT22;48626;51.678;5.806;2023-05-31T06:15:23;15.00;99.90
62573;DHT22;48626;51.678;5.806;2023-05-31T06:17:49;15.00;99.90
62573;DHT22;48626;51.678;5.806;2023-05-31T06:20:15;15.10;99.90
62573;DHT22;48626;51.678;5.806;2023-05-31T06:22:42;15.10;99.90
62573;DHT22;48626;51.678;5.806;2023-05-31T06:25:08;15.20;99.90
62573;DHT22;48626;51.678;5.806;2023-05-31T06:27:36;15.30;99.90
62573;DHT22;48626;51.678;5.806;2023-05-31T06:30:02;15.30;99.90
62573;DHT22;48626;51.678;5.806;2023-05-31T06:32:29;15.40;99.90
62573;DHT22;48626;51.678;5.806;2023-05-31T06:34:55;15.40;99.90
62573;DHT22;48626;51.678;5.806;2023-05-31T06:37:22;15.50;99.90
62573;DHT22;48626;51.678;5.806;2023-05-31T06:39:48;15.50;99.90
62573;DHT22;48626;51.678;5.806;2023-05-31T06:42:14;15.60;99.90
62573;DHT22;48626;51.678;5.806;2023-05-31T06:44:44;15.70;99.90
62573;DHT22;48626;51.678;5.806;2023-05-31T06:47:10;15.80;99.90
62573;DHT22;48626;51.678;5.806;2023-05-31T06:49:38;15.90;99.90
62573;DHT22;48626;51.678;5.806;2023-05-31T06:52:04;16.00;99.90
62573;DHT22;48626;51.678;5.806;2023-05-31T06:54:35;16.00;99.90
62573;DHT22;48626;51.678;5.806;2023-05-31T06:57:02;16.10;99.90
62573;DHT22;48626;51.678;5.806;2023-05-31T06:59:27;16.20;99.90
62573;DHT22;48626;51.678;5.806;2023-05-31T07:01:53;16.30;99.90
62573;DHT22;48626;51.678;5.806;2023-05-31T07:04:20;16.30;99.90
62573;DHT22;48626;51.678;5.806;2023-05-31T07:06:46;16.30;99.90
62573;DHT22;48626;51.678;5.806;2023-05-31T07:09:11;16.40;99.90
62573;DHT22;48626;51.678;5.806;2023-05-31T07:11:41;16.60;99.90
62573;DHT22;48626;51.678;5.806;2023-05-31T07:14:07;16.70;99.90
62573;DHT22;48626;51.678;5.806;2023-05-31T07:16:33;16.70;99.90
62573;DHT22;48626;51.678;5.806;2023-05-31T07:18:59;16.80;99.90
62573;DHT22;48626;51.678;5.806;2023-05-31T07:21:24;16.90;99.90
62573;DHT22;48626;51.678;5.806;2023-05-31T07:23:50;17.00;99.90
62573;DHT22;48626;51.678;5.806;2023-05-31T07:26:17;17.10;99.90
62573;DHT22;48626;51.678;5.806;2023-05-31T07:28:44;17.20;99.90
62573;DHT22;48626;51.678;5.806;2023-05-31T07:31:10;17.30;99.90
62573;DHT22;48626;51.678;5.806;2023-05-31T07:33:35;17.40;99.90
62573;DHT22;48626;51.678;5.806;2023-05-31T07:36:01;17.40;99.90
62573;DHT22;48626;51.678;5.806;2023-05-31T07:38:28;17.50;99.90
62573;DHT22;48626;51.678;5.806;2023-05-31T07:40:54;17.60;99.90
62573;DHT22;48626;51.678;5.806;2023-05-31T07:43:19;17.80;99.90
62573;DHT22;48626;51.678;5.806;2023-05-31T07:45:49;17.90;99.90
62573;DHT22;48626;51.678;5.806;2023-05-31T07:48:16;18.00;99.90
62573;DHT22;48626;51.678;5.806;2023-05-31T07:50:43;18.10;99.90
62573;DHT22;48626;51.678;5.806;2023-05-31T07:53:08;18.30;99.90
62573;DHT22;48626;51.678;5.806;2023-05-31T07:55:34;18.30;99.90
62573;DHT22;48626;51.678;5.806;2023-05-31T07:58:01;18.40;99.90
62573;DHT22;48626;51.678;5.806;2023-05-31T08:00:26;18.50;99.90
62573;DHT22;48626;51.678;5.806;2023-05-31T08:02:52;18.60;99.90
62573;DHT22;48626;51.678;5.806;2023-05-31T08:05:18;18.70;99.90
62573;DHT22;48626;51.678;5.806;2023-05-31T08:07:43;18.80;99.90
62573;DHT22;48626;51.678;5.806;2023-05-31T08:10:10;18.90;99.90
62573;DHT22;48626;51.678;5.806;2023-05-31T08:12:37;18.90;99.90
62573;DHT22;48626;51.678;5.806;2023-05-31T08:15:03;19.10;99.90
62573;DHT22;48626;51.678;5.806;2023-05-31T08:17:28;19.20;99.90
62573;DHT22;48626;51.678;5.806;2023-05-31T08:19:54;19.30;99.90
62573;DHT22;48626;51.678;5.806;2023-05-31T08:22:21;19.30;99.90
62573;DHT22;48626;51.678;5.806;2023-05-31T08:24:47;19.50;99.90
62573;DHT22;48626;51.678;5.806;2023-05-31T08:27:12;19.60;99.90
62573;DHT22;48626;51.678;5.806;2023-05-31T08:29:42;19.70;99.90
62573;DHT22;48626;51.678;5.806;2023-05-31T08:32:11;19.70;99.90
62573;DHT22;48626;51.678;5.806;2023-05-31T08:34:37;19.90;99.90
62573;DHT22;48626;51.678;5.806;2023-05-31T08:37:03;19.90;99.90
62573;DHT22;48626;51.678;5.806;2023-05-31T08:39:29;20.10;99.90
62573;DHT22;48626;51.678;5.806;2023-05-31T08:42:04;20.30;99.90
62573;DHT22;48626;51.678;5.806;2023-05-31T08:44:31;20.30;99.90
62573;DHT22;48626;51.678;5.806;2023-05-31T08:47:17;20.40;99.90
62573;DHT22;48626;51.678;5.806;2023-05-31T08:49:45;20.40;99.90
62573;DHT22;48626;51.678;5.806;2023-05-31T08:52:11;20.40;99.90
62573;DHT22;48626;51.678;5.806;2023-05-31T08:54:38;20.50;99.90
62573;DHT22;48626;51.678;5.806;2023-05-31T08:57:04;20.60;99.90
62573;DHT22;48626;51.678;5.806;2023-05-31T08:59:31;20.70;99.90
62573;DHT22;48626;51.678;5.806;2023-05-31T09:01:59;20.80;99.90
62573;DHT22;48626;51.678;5.806;2023-05-31T09:04:26;20.90;99.90
62573;DHT22;48626;51.678;5.806;2023-05-31T09:06:52;21.00;99.90
62573;DHT22;48626;51.678;5.806;2023-05-31T09:09:17;21.10;99.90
62573;DHT22;48626;51.678;5.806;2023-05-31T09:11:44;21.20;99.90
62573;DHT22;48626;51.678;5.806;2023-05-31T09:14:10;21.30;99.90
62573;DHT22;48626;51.678;5.806;2023-05-31T09:16:36;21.30;99.90
62573;DHT22;48626;51.678;5.806;2023-05-31T09:19:04;21.40;99.90
62573;DHT22;48626;51.678;5.806;2023-05-31T09:21:41;21.50;99.90
62573;DHT22;48626;51.678;5.806;2023-05-31T09:24:07;21.60;99.90
62573;DHT22;48626;51.678;5.806;2023-05-31T09:26:33;21.70;99.90
62573;DHT22;48626;51.678;5.806;2023-05-31T09:28:59;21.80;99.90
62573;DHT22;48626;51.678;5.806;2023-05-31T09:31:25;21.80;99.90
62573;DHT22;48626;51.678;5.806;2023-05-31T09:33:52;21.90;99.90
62573;DHT22;48626;51.678;5.806;2023-05-31T09:36:25;22.10;99.90
62573;DHT22;48626;51.678;5.806;2023-05-31T09:38:58;22.20;99.90
62573;DHT22;48626;51.678;5.806;2023-05-31T09:41:27;22.30;99.90
62573;DHT22;48626;51.678;5.806;2023-05-31T09:43:52;22.30;99.90
62573;DHT22;48626;51.678;5.806;2023-05-31T09:46:22;22.30;99.90
62573;DHT22;48626;51.678;5.806;2023-05-31T09:49:03;22.40;99.90
62573;DHT22;48626;51.678;5.806;2023-05-31T09:51:33;22.60;99.90
62573;DHT22;48626;51.678;5.806;2023-05-31T09:54:14;22.70;99.90
62573;DHT22;48626;51.678;5.806;2023-05-31T09:56:42;22.70;99.90
62573;DHT22;48626;51.678;5.806;2023-05-31T09:59:09;22.80;99.90
62573;DHT22;48626;51.678;5.806;2023-05-31T10:01:35;22.90;99.90
62573;DHT22;48626;51.678;5.806;2023-05-31T10:04:02;23.00;99.90
62573;DHT22;48626;51.678;5.806;2023-05-31T10:06:29;23.10;99.90
62573;DHT22;48626;51.678;5.806;2023-05-31T10:09:04;23.10;99.90
62573;DHT22;48626;51.678;5.806;2023-05-31T10:11:37;23.30;99.90
62573;DHT22;48626;51.678;5.806;2023-05-31T10:14:08;23.30;99.90
62573;DHT22;48626;51.678;5.806;2023-05-31T10:16:55;23.30;99.90
62573;DHT22;48626;51.678;5.806;2023-05-31T10:19:50;23.50;99.90
62573;DHT22;48626;51.678;5.806;2023-05-31T10:22:14;23.60;99.90
62573;DHT22;48626;51.678;5.806;2023-05-31T10:24:51;23.80;99.90
62573;DHT22;48626;51.678;5.806;2023-05-31T10:27:26;23.90;99.90
62573;DHT22;48626;51.678;5.806;2023-05-31T10:29:56;24.10;99.90
62573;DHT22;48626;51.678;5.806;2023-05-31T10:32:29;24.20;99.90
62573;DHT22;48626;51.678;5.806;2023-05-31T10:34:58;24.30;99.90
62573;DHT22;48626;51.678;5.806;2023-05-31T10:37:24;24.50;99.90
62573;DHT22;48626;51.678;5.806;2023-05-31T10:40:07;24.70;99.90
62573;DHT22;48626;51.678;5.806;2023-05-31T10:50:19;25.30;99.90
62573;DHT22;48626;51.678;5.806;2023-05-31T10:53:09;25.40;99.90
62573;DHT22;48626;51.678;5.806;2023-05-31T10:55:43;25.50;99.90
62573;DHT22;48626;51.678;5.806;2023-05-31T10:58:25;25.70;99.90
62573;DHT22;48626;51.678;5.806;2023-05-31T11:01:03;25.80;99.90
62573;DHT22;48626;51.678;5.806;2023-05-31T11:03:29;25.90;99.90
62573;DHT22;48626;51.678;5.806;2023-05-31T11:05:58;25.90;99.90
62573;DHT22;48626;51.678;5.806;2023-05-31T11:08:31;25.90;99.90
62573;DHT22;48626;51.678;5.806;2023-05-31T11:14:05;26.20;99.90
62573;DHT22;48626;51.678;5.806;2023-05-31T11:19:16;26.40;99.90
62573;DHT22;48626;51.678;5.806;2023-05-31T11:21:50;26.50;99.90
62573;DHT22;48626;51.678;5.806;2023-05-31T11:24:36;26.50;99.90
62573;DHT22;48626;51.678;5.806;2023-05-31T11:27:03;26.60;99.90
62573;DHT22;48626;51.678;5.806;2023-05-31T11:35:06;26.90;99.90
62573;DHT22;48626;51.678;5.806;2023-05-31T11:37:35;27.00;99.90
62573;DHT22;48626;51.678;5.806;2023-05-31T11:40:07;27.10;99.90
62573;DHT22;48626;51.678;5.806;2023-05-31T11:42:36;27.10;99.90
62573;DHT22;48626;51.678;5.806;2023-05-31T11:45:06;27.00;99.90
62573;DHT22;48626;51.678;5.806;2023-05-31T11:47:33;27.00;99.90
62573;DHT22;48626;51.678;5.806;2023-05-31T11:50:01;27.20;99.90
62573;DHT22;48626;51.678;5.806;2023-05-31T11:52:27;27.40;99.90
62573;DHT22;48626;51.678;5.806;2023-05-31T11:54:53;27.60;99.90
62573;DHT22;48626;51.678;5.806;2023-05-31T11:57:21;27.90;99.90
62573;DHT22;48626;51.678;5.806;2023-05-31T11:59:48;28.00;99.90
62573;DHT22;48626;51.678;5.806;2023-05-31T12:02:13;28.00;99.90
62573;DHT22;48626;51.678;5.806;2023-05-31T12:04:41;28.20;99.90
62573;DHT22;48626;51.678;5.806;2023-05-31T12:07:11;28.30;99.90
62573;DHT22;48626;51.678;5.806;2023-05-31T12:09:37;28.50;99.90
62573;DHT22;48626;51.678;5.806;2023-05-31T12:12:04;28.60;99.90
62573;DHT22;48626;51.678;5.806;2023-05-31T12:14:33;28.60;99.90
62573;DHT22;48626;51.678;5.806;2023-05-31T12:17:06;28.80;99.90
62573;DHT22;48626;51.678;5.806;2023-05-31T12:19:32;28.90;99.90
62573;DHT22;48626;51.678;5.806;2023-05-31T12:21:58;29.10;99.90
62573;DHT22;48626;51.678;5.806;2023-05-31T12:24:26;29.40;99.90
62573;DHT22;48626;51.678;5.806;2023-05-31T12:26:54;29.50;99.90
62573;DHT22;48626;51.678;5.806;2023-05-31T12:29:29;29.60;99.90
62573;DHT22;48626;51.678;5.806;2023-05-31T12:32:05;29.70;99.90
62573;DHT22;48626;51.678;5.806;2023-05-31T12:34:35;29.80;99.90
62573;DHT22;48626;51.678;5.806;2023-05-31T12:37:09;29.80;99.90
62573;DHT22;48626;51.678;5.806;2023-05-31T12:39:35;29.90;99.90
62573;DHT22;48626;51.678;5.806;2023-05-31T12:42:02;30.00;99.90
62573;DHT22;48626;51.678;5.806;2023-05-31T12:44:29;30.20;99.90
62573;DHT22;48626;51.678;5.806;2023-05-31T12:47:03;30.20;99.90
62573;DHT22;48626;51.678;5.806;2023-05-31T12:49:31;30.30;99.90
62573;DHT22;48626;51.678;5.806;2023-05-31T12:52:05;30.40;99.90
62573;DHT22;48626;51.678;5.806;2023-05-31T12:54:36;30.50;99.90
62573;DHT22;48626;51.678;5.806;2023-05-31T12:57:04;30.40;99.90
62573;DHT22;48626;51.678;5.806;2023-05-31T12:59:31;30.40;99.90
62573;DHT22;48626;51.678;5.806;2023-05-31T13:01:57;30.70;99.90
62573;DHT22;48626;51.678;5.806;2023-05-31T13:04:23;30.90;99.90
62573;DHT22;48626;51.678;5.806;2023-05-31T13:06:49;31.20;99.90
62573;DHT22;48626;51.678;5.806;2023-05-31T13:09:15;31.20;99.90
62573;DHT22;48626;51.678;5.806;2023-05-31T13:11:44;31.20;99.90
62573;DHT22;48626;51.678;5.806;2023-05-31T13:14:14;31.40;99.90
62573;DHT22;48626;51.678;5.806;2023-05-31T13:16:40;31.30;99.90
62573;DHT22;48626;51.678;5.806;2023-05-31T13:19:07;31.40;99.90
62573;DHT22;48626;51.678;5.806;2023-05-31T13:21:33;31.60;99.90
62573;DHT22;48626;51.678;5.806;2023-05-31T13:24:02;31.90;99.90
62573;DHT22;48626;51.678;5.806;2023-05-31T13:26:29;31.80;99.90
62573;DHT22;48626;51.678;5.806;2023-05-31T13:28:55;31.60;99.90
62573;DHT22;48626;51.678;5.806;2023-05-31T13:31:23;31.50;99.90
62573;DHT22;48626;51.678;5.806;2023-05-31T13:33:49;31.90;99.90
62573;DHT22;48626;51.678;5.806;2023-05-31T13:36:16;32.10;99.90
62573;DHT22;48626;51.678;5.806;2023-05-31T13:38:42;32.20;99.90
62573;DHT22;48626;51.678;5.806;2023-05-31T13:41:08;32.30;99.90
62573;DHT22;48626;51.678;5.806;2023-05-31T13:43:34;32.40;99.90
62573;DHT22;48626;51.678;5.806;2023-05-31T13:46:03;32.20;99.90
62573;DHT22;48626;51.678;5.806;2023-05-31T13:48:29;32.30;99.90
62573;DHT22;48626;51.678;5.806;2023-05-31T13:50:54;32.60;99.90
62573;DHT22;48626;51.678;5.806;2023-05-31T13:53:20;32.70;99.90
62573;DHT22;48626;51.678;5.806;2023-05-31T13:55:47;33.00;99.90
62573;DHT22;48626;51.678;5.806;2023-05-31T13:58:13;33.20;99.90
62573;DHT22;48626;51.678;5.806;2023-05-31T14:00:38;33.30;99.90
62573;DHT22;48626;51.678;5.806;2023-05-31T14:03:04;33.30;99.90
62573;DHT22;48626;51.678;5.806;2023-05-31T14:05:30;33.30;99.90
62573;DHT22;48626;51.678;5.806;2023-05-31T14:07:56;33.40;99.90
62573;DHT22;48626;51.678;5.806;2023-05-31T14:10:23;33.50;99.90
62573;DHT22;48626;51.678;5.806;2023-05-31T14:12:49;33.80;99.90
62573;DHT22;48626;51.678;5.806;2023-05-31T14:15:15;34.10;99.90
62573;DHT22;48626;51.678;5.806;2023-05-31T14:17:41;34.10;99.90
62573;DHT22;48626;51.678;5.806;2023-05-31T14:20:07;34.30;99.90
62573;DHT22;48626;51.678;5.806;2023-05-31T14:22:33;34.50;99.90
62573;DHT22;48626;51.678;5.806;2023-05-31T14:25:02;34.40;99.90
62573;DHT22;48626;51.678;5.806;2023-05-31T14:27:29;34.40;99.90
62573;DHT22;48626;51.678;5.806;2023-05-31T14:29:54;34.50;99.90
62573;DHT22;48626;51.678;5.806;2023-05-31T14:32:20;34.80;99.90
62573;DHT22;48626;51.678;5.806;2023-05-31T14:34:46;35.00;99.90
62573;DHT22;48626;51.678;5.806;2023-05-31T14:37:12;34.80;99.90
62573;DHT22;48626;51.678;5.806;2023-05-31T14:39:39;34.80;99.90
62573;DHT22;48626;51.678;5.806;2023-05-31T14:42:05;34.90;99.90
62573;DHT22;48626;51.678;5.806;2023-05-31T14:44:33;34.90;99.90
62573;DHT22;48626;51.678;5.806;2023-05-31T14:47:01;34.90;99.90
62573;DHT22;48626;51.678;5.806;2023-05-31T14:49:27;34.90;99.90
62573;DHT22;48626;51.678;5.806;2023-05-31T14:51:53;35.00;99.90
62573;DHT22;48626;51.678;5.806;2023-05-31T14:54:19;35.10;99.90
62573;DHT22;48626;51.678;5.806;2023-05-31T14:56:45;35.50;99.90
62573;DHT22;48626;51.678;5.806;2023-05-31T14:59:12;35.70;99.90
62573;DHT22;48626;51.678;5.806;2023-05-31T15:01:41;35.60;99.90
62573;DHT22;48626;51.678;5.806;2023-05-31T15:04:14;35.60;99.90
62573;DHT22;48626;51.678;5.806;2023-05-31T15:06:41;35.60;99.90
62573;DHT22;48626;51.678;5.806;2023-05-31T15:09:08;35.60;99.90
62573;DHT22;48626;51.678;5.806;2023-05-31T15:11:38;35.70;99.90
62573;DHT22;48626;51.678;5.806;2023-05-31T15:14:04;35.90;99.90
62573;DHT22;48626;51.678;5.806;2023-05-31T15:16:30;35.80;99.90
62573;DHT22;48626;51.678;5.806;2023-05-31T15:18:56;36.00;99.90
62573;DHT22;48626;51.678;5.806;2023-05-31T15:21:23;36.40;99.90
62573;DHT22;48626;51.678;5.806;2023-05-31T15:23:49;36.50;99.90
62573;DHT22;48626;51.678;5.806;2023-05-31T15:26:18;36.70;99.90
62573;DHT22;48626;51.678;5.806;2023-05-31T15:28:44;36.50;99.90
62573;DHT22;48626;51.678;5.806;2023-05-31T15:31:10;36.60;99.90
62573;DHT22;48626;51.678;5.806;2023-05-31T15:33:37;36.80;99.90
62573;DHT22;48626;51.678;5.806;2023-05-31T15:36:03;37.10;99.90
62573;DHT22;48626;51.678;5.806;2023-05-31T15:38:30;37.30;99.90
62573;DHT22;48626;51.678;5.806;2023-05-31T15:40:56;37.30;99.90
62573;DHT22;48626;51.678;5.806;2023-05-31T15:43:25;37.40;99.90
62573;DHT22;48626;51.678;5.806;2023-05-31T15:45:51;37.30;99.90
62573;DHT22;48626;51.678;5.806;2023-05-31T15:48:20;37.10;99.90
62573;DHT22;48626;51.678;5.806;2023-05-31T15:50:46;37.20;99.90
62573;DHT22;48626;51.678;5.806;2023-05-31T15:53:12;37.10;99.90
62573;DHT22;48626;51.678;5.806;2023-05-31T15:55:37;36.90;99.90